EXS573L EGHH-LGIR
Flight info
| Callsign | EXS573L |
|---|---|
| Flight time | N/A |
| Altitude | 35000 |
| Route | SAM Y8 GWC DCT BENBO UL612 VEULE DCT TEPRI UN491 POGZI DCT GELTA DCT LUVAL DCT BEGAR DCT TRA DCT GAMSA N871 MADEB M738 TIRUL DCT DIRAB DCT PEVAL DCT ZDA DCT SPL DCT VAKSU DCT UNDER DCT PINDO UL607 PIKOS DCT LUSES DCT ATV UL995 KEA UL607 GIVIS T514 XAVIS |
| Aircraft | B738/M-SDE2E3FGHIRWXY/LB1 |
Departure
| Time | 2026-05-01 15:08 |
|---|---|
| Airport | Bournemouth Airport (EGHH) |
Arrival
| Time | N/A |
|---|---|
| Airport | Heraklion International Nikos Kazantzakis Airport (LGIR) |
| Time | Latitude | Longitude | Altitude | Speed | Heading |
|---|---|---|---|---|---|
| 2026-05-01 14:44 | 50.77805 | -1.83377 | 45 ft | 0 kts | 85° |
| 2026-05-01 15:00 | 50.77790 | -1.83447 | 42 ft | 4 kts | 43° |
| 2026-05-01 15:00 | 50.77769 | -1.83465 | 45 ft | 3 kts | 359° |
| 2026-05-01 15:00 | 50.77766 | -1.83465 | 40 ft | 0 kts | 356° |
| 2026-05-01 15:03 | 50.77779 | -1.83466 | 45 ft | 9 kts | 356° |
| 2026-05-01 15:03 | 50.77851 | -1.83474 | 45 ft | 11 kts | 344° |
| 2026-05-01 15:04 | 50.77935 | -1.83493 | 45 ft | 13 kts | 2° |
| 2026-05-01 15:04 | 50.78004 | -1.83413 | 45 ft | 13 kts | 61° |
| 2026-05-01 15:04 | 50.78044 | -1.83288 | 45 ft | 13 kts | 64° |
| 2026-05-01 15:04 | 50.78086 | -1.83179 | 45 ft | 7 kts | 56° |
| 2026-05-01 15:05 | 50.78117 | -1.83107 | 45 ft | 14 kts | 62° |
| 2026-05-01 15:05 | 50.78119 | -1.82940 | 45 ft | 15 kts | 88° |
| 2026-05-01 15:05 | 50.78147 | -1.82802 | 44 ft | 11 kts | 54° |
| 2026-05-01 15:05 | 50.78206 | -1.82730 | 44 ft | 11 kts | 19° |
| 2026-05-01 15:06 | 50.78248 | -1.82794 | 43 ft | 9 kts | 267° |
| 2026-05-01 15:06 | 50.78244 | -1.82822 | 42 ft | 0 kts | 255° |
| 2026-05-01 15:07 | 50.78244 | -1.82823 | 42 ft | 0 kts | 255° |
| 2026-05-01 15:07 | 50.78231 | -1.82897 | 42 ft | 37 kts | 255° |
| 2026-05-01 15:07 | 50.78080 | -1.83805 | 41 ft | 131 kts | 255° |
| 2026-05-01 15:07 | 50.77817 | -1.85491 | 524 ft | 171 kts | 253° |
| 2026-05-01 15:08 | 50.77539 | -1.87381 | 1617 ft | 178 kts | 256° |
| 2026-05-01 15:08 | 50.77289 | -1.89343 | 2693 ft | 198 kts | 268° |
| 2026-05-01 15:08 | 50.77389 | -1.91684 | 3118 ft | 221 kts | 271° |
| 2026-05-01 15:08 | 50.77489 | -1.94161 | 3772 ft | 230 kts | 276° |
| 2026-05-01 15:09 | 50.78159 | -1.96580 | 4234 ft | 258 kts | 304° |
| 2026-05-01 15:09 | 50.79608 | -1.98431 | 4849 ft | 280 kts | 333° |
| 2026-05-01 15:09 | 50.81517 | -1.99104 | 5833 ft | 286 kts | 1° |
| 2026-05-01 15:09 | 50.83434 | -1.98331 | 6771 ft | 288 kts | 31° |
| 2026-05-01 15:10 | 50.84853 | -1.96149 | 7594 ft | 288 kts | 64° |
| 2026-05-01 15:10 | 50.86066 | -1.90141 | 9354 ft | 290 kts | 80° |
| 2026-05-01 15:10 | 50.86559 | -1.87015 | 10237 ft | 294 kts | 80° |
| 2026-05-01 15:11 | 50.87070 | -1.83806 | 10813 ft | 311 kts | 80° |
| 2026-05-01 15:11 | 50.88249 | -1.76635 | 11192 ft | 363 kts | 79° |
| 2026-05-01 15:11 | 50.88925 | -1.72663 | 11462 ft | 382 kts | 78° |
| 2026-05-01 15:12 | 50.89635 | -1.68555 | 12042 ft | 390 kts | 78° |
| 2026-05-01 15:12 | 50.91091 | -1.60186 | 13498 ft | 397 kts | 78° |
| 2026-05-01 15:12 | 50.91824 | -1.55947 | 14162 ft | 402 kts | 78° |
| 2026-05-01 15:13 | 50.94056 | -1.42967 | 16124 ft | 411 kts | 78° |
| 2026-05-01 15:14 | 50.95268 | -1.34093 | 17334 ft | 412 kts | 94° |
| 2026-05-01 15:14 | 50.94810 | -1.29651 | 17955 ft | 408 kts | 108° |
| 2026-05-01 15:14 | 50.93282 | -1.20984 | 19045 ft | 415 kts | 109° |
| 2026-05-01 15:15 | 50.91733 | -1.12108 | 20106 ft | 420 kts | 109° |
| 2026-05-01 15:15 | 50.90196 | -1.03113 | 21130 ft | 426 kts | 108° |
| 2026-05-01 15:16 | 50.88645 | -0.94012 | 22101 ft | 431 kts | 108° |
| 2026-05-01 15:16 | 50.87071 | -0.84815 | 23120 ft | 434 kts | 109° |
| 2026-05-01 15:17 | 50.85087 | -0.75797 | 23949 ft | 435 kts | 120° |
| 2026-05-01 15:18 | 50.79669 | -0.64349 | 25042 ft | 436 kts | 132° |
| 2026-05-01 15:18 | 50.77714 | -0.60678 | 25386 ft | 438 kts | 132° |
| 2026-05-01 15:19 | 50.71821 | -0.49507 | 26378 ft | 444 kts | 132° |
| 2026-05-01 15:19 | 50.67865 | -0.41971 | 27025 ft | 447 kts | 132° |
| 2026-05-01 15:19 | 50.65881 | -0.38196 | 27476 ft | 446 kts | 132° |
| 2026-05-01 15:20 | 50.61947 | -0.30728 | 28552 ft | 440 kts | 131° |
| 2026-05-01 15:20 | 50.60021 | -0.27080 | 29003 ft | 439 kts | 131° |
| 2026-05-01 15:20 | 50.58045 | -0.23345 | 29421 ft | 438 kts | 131° |
| 2026-05-01 15:21 | 50.56097 | -0.19667 | 29886 ft | 437 kts | 131° |
| 2026-05-01 15:21 | 50.54176 | -0.16046 | 30353 ft | 435 kts | 131° |
| 2026-05-01 15:21 | 50.52240 | -0.12400 | 30712 ft | 435 kts | 131° |
| 2026-05-01 15:21 | 50.50299 | -0.08750 | 30985 ft | 436 kts | 131° |
| 2026-05-01 15:22 | 50.46382 | -0.01430 | 31590 ft | 437 kts | 133° |
| 2026-05-01 15:22 | 50.44222 | 0.01876 | 32052 ft | 431 kts | 141° |
| 2026-05-01 15:22 | 50.41799 | 0.04587 | 32538 ft | 427 kts | 148° |
| 2026-05-01 15:23 | 50.39292 | 0.07092 | 32790 ft | 429 kts | 148° |
| 2026-05-01 15:23 | 50.36778 | 0.09642 | 32986 ft | 431 kts | 147° |
| 2026-05-01 15:23 | 50.34272 | 0.12224 | 33293 ft | 431 kts | 147° |
| 2026-05-01 15:23 | 50.31777 | 0.14815 | 33679 ft | 430 kts | 147° |
| 2026-05-01 15:24 | 50.29292 | 0.17400 | 34019 ft | 429 kts | 147° |
| 2026-05-01 15:24 | 50.26803 | 0.19984 | 34283 ft | 430 kts | 147° |
| 2026-05-01 15:24 | 50.24311 | 0.22564 | 34502 ft | 430 kts | 147° |
| 2026-05-01 15:24 | 50.21809 | 0.25148 | 34738 ft | 431 kts | 147° |
| 2026-05-01 15:25 | 50.19307 | 0.27726 | 34972 ft | 431 kts | 147° |
| 2026-05-01 15:25 | 50.16793 | 0.30308 | 35078 ft | 435 kts | 147° |
| 2026-05-01 15:25 | 50.14254 | 0.32912 | 35185 ft | 439 kts | 147° |
| 2026-05-01 15:25 | 50.11688 | 0.35540 | 35205 ft | 444 kts | 147° |
| 2026-05-01 15:26 | 50.06470 | 0.40877 | 35216 ft | 452 kts | 147° |
| 2026-05-01 15:26 | 50.01209 | 0.46247 | 35210 ft | 452 kts | 147° |
| 2026-05-01 15:27 | 49.96024 | 0.51529 | 35204 ft | 440 kts | 147° |
| 2026-05-01 15:28 | 49.88331 | 0.59335 | 35219 ft | 441 kts | 148° |
| 2026-05-01 15:28 | 49.83584 | 0.65345 | 35212 ft | 444 kts | 134° |
| 2026-05-01 15:29 | 49.77401 | 0.75981 | 35201 ft | 446 kts | 133° |
| 2026-05-01 15:30 | 49.69035 | 0.90189 | 35190 ft | 448 kts | 134° |
| 2026-05-01 15:31 | 49.56430 | 1.11313 | 35184 ft | 444 kts | 134° |
| 2026-05-01 15:32 | 49.48032 | 1.25294 | 35196 ft | 446 kts | 134° |
| 2026-05-01 15:34 | 49.35322 | 1.46312 | 35175 ft | 446 kts | 134° |